sensor_id;sensor_type;location;lat;lon;timestamp;temperature;humidity
51950;DHT22;37974;53.218;6.640;2023-03-01T00:02:03;-1.00;99.90
51950;DHT22;37974;53.218;6.640;2023-03-01T00:04:30;0.20;99.90
51950;DHT22;37974;53.218;6.640;2023-03-01T00:06:56;-1.10;99.90
51950;DHT22;37974;53.218;6.640;2023-03-01T00:09:22;0.00;99.90
51950;DHT22;37974;53.218;6.640;2023-03-01T00:11:48;-1.80;99.90
51950;DHT22;37974;53.218;6.640;2023-03-01T00:14:15;-0.80;99.90
51950;DHT22;37974;53.218;6.640;2023-03-01T00:16:43;-0.20;99.90
51950;DHT22;37974;53.218;6.640;2023-03-01T00:19:13;-1.30;99.90
51950;DHT22;37974;53.218;6.640;2023-03-01T00:21:39;-0.10;99.90
51950;DHT22;37974;53.218;6.640;2023-03-01T00:24:05;-1.00;99.90
51950;DHT22;37974;53.218;6.640;2023-03-01T00:26:31;-1.50;99.90
51950;DHT22;37974;53.218;6.640;2023-03-01T00:28:58;-1.50;99.90
51950;DHT22;37974;53.218;6.640;2023-03-01T00:31:27;-0.10;99.90
51950;DHT22;37974;53.218;6.640;2023-03-01T00:33:55;-0.40;99.90
51950;DHT22;37974;53.218;6.640;2023-03-01T00:36:28;-0.30;99.90
51950;DHT22;37974;53.218;6.640;2023-03-01T00:38:54;-1.60;99.90
51950;DHT22;37974;53.218;6.640;2023-03-01T00:41:20;-0.20;99.90
51950;DHT22;37974;53.218;6.640;2023-03-01T00:43:49;-1.70;99.90
51950;DHT22;37974;53.218;6.640;2023-03-01T00:46:18;-1.70;99.90
51950;DHT22;37974;53.218;6.640;2023-03-01T00:48:47;-2.00;99.90
51950;DHT22;37974;53.218;6.640;2023-03-01T00:51:16;-1.70;99.90
51950;DHT22;37974;53.218;6.640;2023-03-01T00:53:43;-1.90;99.90
51950;DHT22;37974;53.218;6.640;2023-03-01T00:56:11;-0.90;99.90
51950;DHT22;37974;53.218;6.640;2023-03-01T00:58:37;-1.10;99.90
51950;DHT22;37974;53.218;6.640;2023-03-01T01:01:11;-1.80;99.90
51950;DHT22;37974;53.218;6.640;2023-03-01T01:06:15;-0.90;99.90
51950;DHT22;37974;53.218;6.640;2023-03-01T01:08:40;-1.80;99.90
51950;DHT22;37974;53.218;6.640;2023-03-01T01:11:09;-1.60;99.90
51950;DHT22;37974;53.218;6.640;2023-03-01T01:13:35;-0.60;99.90
51950;DHT22;37974;53.218;6.640;2023-03-01T01:16:01;-1.80;99.90
51950;DHT22;37974;53.218;6.640;2023-03-01T01:18:27;-0.70;99.90
51950;DHT22;37974;53.218;6.640;2023-03-01T01:20:53;-1.90;99.90
51950;DHT22;37974;53.218;6.640;2023-03-01T01:23:18;-1.00;99.90
51950;DHT22;37974;53.218;6.640;2023-03-01T01:25:44;-0.90;99.90
51950;DHT22;37974;53.218;6.640;2023-03-01T01:28:10;-1.90;99.90
51950;DHT22;37974;53.218;6.640;2023-03-01T01:30:36;-1.40;99.90
51950;DHT22;37974;53.218;6.640;2023-03-01T01:33:01;-2.00;99.90
51950;DHT22;37974;53.218;6.640;2023-03-01T01:35:27;-0.80;99.90
51950;DHT22;37974;53.218;6.640;2023-03-01T01:37:53;-1.30;99.90
51950;DHT22;37974;53.218;6.640;2023-03-01T01:40:19;-1.40;99.90
51950;DHT22;37974;53.218;6.640;2023-03-01T01:42:44;-2.00;99.90
51950;DHT22;37974;53.218;6.640;2023-03-01T01:45:31;-0.90;99.90
51950;DHT22;37974;53.218;6.640;2023-03-01T01:48:02;-1.30;99.90
51950;DHT22;37974;53.218;6.640;2023-03-01T01:50:31;-1.30;99.90
51950;DHT22;37974;53.218;6.640;2023-03-01T01:53:06;-2.00;99.90
51950;DHT22;37974;53.218;6.640;2023-03-01T01:55:36;-1.70;99.90
51950;DHT22;37974;53.218;6.640;2023-03-01T01:58:05;-2.00;99.90
51950;DHT22;37974;53.218;6.640;2023-03-01T02:00:32;-2.10;99.90
51950;DHT22;37974;53.218;6.640;2023-03-01T02:03:02;-1.80;99.90
51950;DHT22;37974;53.218;6.640;2023-03-01T02:05:49;-1.90;99.90
51950;DHT22;37974;53.218;6.640;2023-03-01T02:08:18;-1.60;99.90
51950;DHT22;37974;53.218;6.640;2023-03-01T02:10:45;-1.80;99.90
51950;DHT22;37974;53.218;6.640;2023-03-01T02:13:12;-1.40;99.90
51950;DHT22;37974;53.218;6.640;2023-03-01T02:15:39;-2.30;99.90
51950;DHT22;37974;53.218;6.640;2023-03-01T02:18:07;-1.80;99.90
51950;DHT22;37974;53.218;6.640;2023-03-01T02:23:04;-2.40;99.90
51950;DHT22;37974;53.218;6.640;2023-03-01T02:25:47;-2.10;99.90
51950;DHT22;37974;53.218;6.640;2023-03-01T02:30:46;-2.40;99.90
51950;DHT22;37974;53.218;6.640;2023-03-01T02:33:33;-2.30;99.90
51950;DHT22;37974;53.218;6.640;2023-03-01T02:36:00;-2.10;99.90
51950;DHT22;37974;53.218;6.640;2023-03-01T02:38:28;-1.50;99.90
51950;DHT22;37974;53.218;6.640;2023-03-01T02:40:54;-2.40;99.90
51950;DHT22;37974;53.218;6.640;2023-03-01T02:43:26;-2.50;99.90
51950;DHT22;37974;53.218;6.640;2023-03-01T02:45:57;-1.70;99.90
51950;DHT22;37974;53.218;6.640;2023-03-01T02:48:23;-1.80;99.90
51950;DHT22;37974;53.218;6.640;2023-03-01T02:51:10;-2.60;99.90
51950;DHT22;37974;53.218;6.640;2023-03-01T02:53:48;-2.10;99.90
51950;DHT22;37974;53.218;6.640;2023-03-01T02:56:18;-2.60;99.90
51950;DHT22;37974;53.218;6.640;2023-03-01T02:58:44;-2.70;99.90
51950;DHT22;37974;53.218;6.640;2023-03-01T03:01:13;-2.50;99.90
51950;DHT22;37974;53.218;6.640;2023-03-01T03:03:40;-2.10;99.90
51950;DHT22;37974;53.218;6.640;2023-03-01T03:06:06;-1.60;99.90
51950;DHT22;37974;53.218;6.640;2023-03-01T03:08:32;-2.10;99.90
51950;DHT22;37974;53.218;6.640;2023-03-01T03:10:58;-2.00;99.90
51950;DHT22;37974;53.218;6.640;2023-03-01T03:13:23;-2.70;99.90
51950;DHT22;37974;53.218;6.640;2023-03-01T03:15:54;-1.70;99.90
51950;DHT22;37974;53.218;6.640;2023-03-01T03:18:21;-2.70;99.90
51950;DHT22;37974;53.218;6.640;2023-03-01T03:20:47;-2.70;99.90
51950;DHT22;37974;53.218;6.640;2023-03-01T03:23:13;-1.40;99.90
51950;DHT22;37974;53.218;6.640;2023-03-01T03:25:39;-2.40;99.90
51950;DHT22;37974;53.218;6.640;2023-03-01T03:28:06;-2.00;99.90
51950;DHT22;37974;53.218;6.640;2023-03-01T03:30:37;-1.80;99.90
51950;DHT22;37974;53.218;6.640;2023-03-01T03:33:05;-2.70;99.90
51950;DHT22;37974;53.218;6.640;2023-03-01T03:35:33;-2.70;99.90
51950;DHT22;37974;53.218;6.640;2023-03-01T03:38:03;-2.00;99.90
51950;DHT22;37974;53.218;6.640;2023-03-01T03:40:36;-2.50;99.90
51950;DHT22;37974;53.218;6.640;2023-03-01T03:43:04;-2.80;99.90
51950;DHT22;37974;53.218;6.640;2023-03-01T03:45:30;-2.00;99.90
51950;DHT22;37974;53.218;6.640;2023-03-01T03:47:59;-2.40;99.90
51950;DHT22;37974;53.218;6.640;2023-03-01T03:50:25;-2.70;99.90
51950;DHT22;37974;53.218;6.640;2023-03-01T03:52:51;-2.70;99.90
51950;DHT22;37974;53.218;6.640;2023-03-01T03:55:17;-2.30;99.90
51950;DHT22;37974;53.218;6.640;2023-03-01T03:57:46;-2.80;99.90
51950;DHT22;37974;53.218;6.640;2023-03-01T04:00:21;-2.80;99.90
51950;DHT22;37974;53.218;6.640;2023-03-01T04:02:50;-2.80;99.90
51950;DHT22;37974;53.218;6.640;2023-03-01T04:05:18;-1.70;99.90
51950;DHT22;37974;53.218;6.640;2023-03-01T04:07:45;-2.80;99.90
51950;DHT22;37974;53.218;6.640;2023-03-01T04:10:13;-2.50;99.90
51950;DHT22;37974;53.218;6.640;2023-03-01T04:12:39;-2.40;99.90
51950;DHT22;37974;53.218;6.640;2023-03-01T04:15:06;-2.80;99.90
51950;DHT22;37974;53.218;6.640;2023-03-01T04:17:40;-2.80;99.90
51950;DHT22;37974;53.218;6.640;2023-03-01T04:20:08;-2.20;99.90
51950;DHT22;37974;53.218;6.640;2023-03-01T04:22:34;-2.80;99.90
51950;DHT22;37974;53.218;6.640;2023-03-01T04:25:00;-2.80;99.90
51950;DHT22;37974;53.218;6.640;2023-03-01T04:27:27;-2.80;99.90
51950;DHT22;37974;53.218;6.640;2023-03-01T04:29:53;-2.30;99.90
51950;DHT22;37974;53.218;6.640;2023-03-01T04:32:18;-2.90;99.90
51950;DHT22;37974;53.218;6.640;2023-03-01T04:34:44;-2.60;99.90
51950;DHT22;37974;53.218;6.640;2023-03-01T04:37:10;-2.40;99.90
51950;DHT22;37974;53.218;6.640;2023-03-01T04:39:35;-2.20;99.90
51950;DHT22;37974;53.218;6.640;2023-03-01T04:42:11;-2.30;99.90
51950;DHT22;37974;53.218;6.640;2023-03-01T04:44:37;-2.90;99.90
51950;DHT22;37974;53.218;6.640;2023-03-01T04:47:03;-2.90;99.90
51950;DHT22;37974;53.218;6.640;2023-03-01T04:49:29;-2.80;99.90
51950;DHT22;37974;53.218;6.640;2023-03-01T04:51:54;-2.50;99.90
51950;DHT22;37974;53.218;6.640;2023-03-01T04:54:20;-1.90;99.90
51950;DHT22;37974;53.218;6.640;2023-03-01T04:56:46;-2.30;99.90
51950;DHT22;37974;53.218;6.640;2023-03-01T04:59:11;-2.20;99.90
51950;DHT22;37974;53.218;6.640;2023-03-01T05:01:38;-2.40;99.90
51950;DHT22;37974;53.218;6.640;2023-03-01T05:04:04;-1.60;99.90
51950;DHT22;37974;53.218;6.640;2023-03-01T05:06:31;-2.80;99.90
51950;DHT22;37974;53.218;6.640;2023-03-01T05:08:56;-2.80;99.90
51950;DHT22;37974;53.218;6.640;2023-03-01T05:11:23;-2.90;99.90
51950;DHT22;37974;53.218;6.640;2023-03-01T05:13:49;-2.80;99.90
51950;DHT22;37974;53.218;6.640;2023-03-01T05:16:20;-2.90;99.90
51950;DHT22;37974;53.218;6.640;2023-03-01T05:18:45;-1.50;99.90
51950;DHT22;37974;53.218;6.640;2023-03-01T05:21:13;-2.10;99.90
51950;DHT22;37974;53.218;6.640;2023-03-01T05:23:41;-1.70;99.90
51950;DHT22;37974;53.218;6.640;2023-03-01T05:26:07;-2.90;99.90
51950;DHT22;37974;53.218;6.640;2023-03-01T05:28:33;-2.30;99.90
51950;DHT22;37974;53.218;6.640;2023-03-01T05:30:59;-2.90;99.90
51950;DHT22;37974;53.218;6.640;2023-03-01T05:33:25;-3.00;99.90
51950;DHT22;37974;53.218;6.640;2023-03-01T05:35:52;-3.00;99.90
51950;DHT22;37974;53.218;6.640;2023-03-01T05:38:20;-3.10;99.90
51950;DHT22;37974;53.218;6.640;2023-03-01T05:40:47;-3.10;99.90
51950;DHT22;37974;53.218;6.640;2023-03-01T05:43:15;-2.30;99.90
51950;DHT22;37974;53.218;6.640;2023-03-01T05:45:41;-3.10;99.90
51950;DHT22;37974;53.218;6.640;2023-03-01T05:48:08;-2.20;99.90
51950;DHT22;37974;53.218;6.640;2023-03-01T05:50:36;-3.10;99.90
51950;DHT22;37974;53.218;6.640;2023-03-01T05:53:06;-2.50;99.90
51950;DHT22;37974;53.218;6.640;2023-03-01T05:55:34;-3.10;99.90
51950;DHT22;37974;53.218;6.640;2023-03-01T05:58:02;-1.80;99.90
51950;DHT22;37974;53.218;6.640;2023-03-01T06:00:29;-3.10;99.90
51950;DHT22;37974;53.218;6.640;2023-03-01T06:02:56;-2.70;99.90
51950;DHT22;37974;53.218;6.640;2023-03-01T06:05:23;-2.40;99.90
51950;DHT22;37974;53.218;6.640;2023-03-01T06:07:49;-2.40;99.90
51950;DHT22;37974;53.218;6.640;2023-03-01T06:10:16;-2.60;99.90
51950;DHT22;37974;53.218;6.640;2023-03-01T06:12:42;-3.20;99.90
51950;DHT22;37974;53.218;6.640;2023-03-01T06:15:10;-3.20;99.90
51950;DHT22;37974;53.218;6.640;2023-03-01T06:17:38;-3.20;99.90
51950;DHT22;37974;53.218;6.640;2023-03-01T06:20:08;-3.00;99.90
51950;DHT22;37974;53.218;6.640;2023-03-01T06:22:35;-3.20;99.90
51950;DHT22;37974;53.218;6.640;2023-03-01T06:25:00;-3.20;99.90
51950;DHT22;37974;53.218;6.640;2023-03-01T06:27:26;-2.40;99.90
51950;DHT22;37974;53.218;6.640;2023-03-01T06:29:52;-3.30;99.90
51950;DHT22;37974;53.218;6.640;2023-03-01T06:32:18;-3.30;99.90
51950;DHT22;37974;53.218;6.640;2023-03-01T06:34:43;-3.30;99.90
51950;DHT22;37974;53.218;6.640;2023-03-01T06:37:09;-3.30;99.90
51950;DHT22;37974;53.218;6.640;2023-03-01T06:39:35;-3.30;99.90
51950;DHT22;37974;53.218;6.640;2023-03-01T06:42:01;-2.60;99.90
51950;DHT22;37974;53.218;6.640;2023-03-01T06:44:27;-3.30;99.90
51950;DHT22;37974;53.218;6.640;2023-03-01T06:46:52;-3.30;99.90
51950;DHT22;37974;53.218;6.640;2023-03-01T06:49:18;-3.20;99.90
51950;DHT22;37974;53.218;6.640;2023-03-01T06:51:45;-3.10;99.90
51950;DHT22;37974;53.218;6.640;2023-03-01T06:54:11;-1.80;99.90
51950;DHT22;37974;53.218;6.640;2023-03-01T06:56:37;-3.10;99.90
51950;DHT22;37974;53.218;6.640;2023-03-01T06:59:03;-3.10;99.90
51950;DHT22;37974;53.218;6.640;2023-03-01T07:01:29;-1.70;99.90
51950;DHT22;37974;53.218;6.640;2023-03-01T07:03:55;-3.10;99.90
51950;DHT22;37974;53.218;6.640;2023-03-01T07:06:21;-3.10;99.90
51950;DHT22;37974;53.218;6.640;2023-03-01T07:08:47;-3.10;99.90
51950;DHT22;37974;53.218;6.640;2023-03-01T07:11:13;-3.00;99.90
51950;DHT22;37974;53.218;6.640;2023-03-01T07:13:39;-3.10;99.90
51950;DHT22;37974;53.218;6.640;2023-03-01T07:16:05;-3.10;99.90
51950;DHT22;37974;53.218;6.640;2023-03-01T07:18:31;-3.10;99.90
51950;DHT22;37974;53.218;6.640;2023-03-01T07:20:57;-3.10;99.90
51950;DHT22;37974;53.218;6.640;2023-03-01T07:23:23;-3.10;99.90
51950;DHT22;37974;53.218;6.640;2023-03-01T07:25:53;-3.00;99.90
51950;DHT22;37974;53.218;6.640;2023-03-01T07:28:20;-2.90;99.90
51950;DHT22;37974;53.218;6.640;2023-03-01T07:30:45;-2.90;99.90
51950;DHT22;37974;53.218;6.640;2023-03-01T07:33:11;-2.80;99.90
51950;DHT22;37974;53.218;6.640;2023-03-01T07:35:37;-2.80;99.90
51950;DHT22;37974;53.218;6.640;2023-03-01T07:38:02;-2.10;99.90
51950;DHT22;37974;53.218;6.640;2023-03-01T07:40:28;-1.80;99.90
51950;DHT22;37974;53.218;6.640;2023-03-01T07:42:56;-2.70;99.90
51950;DHT22;37974;53.218;6.640;2023-03-01T07:45:24;-2.60;99.90
51950;DHT22;37974;53.218;6.640;2023-03-01T07:47:51;-2.00;99.90
51950;DHT22;37974;53.218;6.640;2023-03-01T07:50:18;-2.50;99.90
51950;DHT22;37974;53.218;6.640;2023-03-01T07:52:45;-1.10;99.90
51950;DHT22;37974;53.218;6.640;2023-03-01T07:55:11;-2.30;99.90
51950;DHT22;37974;53.218;6.640;2023-03-01T07:57:38;-1.10;99.90
51950;DHT22;37974;53.218;6.640;2023-03-01T08:00:04;-2.10;99.90
51950;DHT22;37974;53.218;6.640;2023-03-01T08:02:31;-2.10;99.90
51950;DHT22;37974;53.218;6.640;2023-03-01T08:04:56;-2.00;99.90
51950;DHT22;37974;53.218;6.640;2023-03-01T08:07:22;-1.40;99.90
51950;DHT22;37974;53.218;6.640;2023-03-01T08:09:48;-1.80;99.90
51950;DHT22;37974;53.218;6.640;2023-03-01T08:12:14;-1.70;99.90
51950;DHT22;37974;53.218;6.640;2023-03-01T08:14:42;-1.70;99.90
51950;DHT22;37974;53.218;6.640;2023-03-01T08:17:07;-0.50;99.90
51950;DHT22;37974;53.218;6.640;2023-03-01T08:19:33;-1.50;99.90
51950;DHT22;37974;53.218;6.640;2023-03-01T08:22:02;-0.50;99.90
51950;DHT22;37974;53.218;6.640;2023-03-01T08:24:28;-0.40;99.90
51950;DHT22;37974;53.218;6.640;2023-03-01T08:26:54;-0.70;99.90
51950;DHT22;37974;53.218;6.640;2023-03-01T08:29:20;-1.10;99.90
51950;DHT22;37974;53.218;6.640;2023-03-01T08:31:47;-0.10;99.90
51950;DHT22;37974;53.218;6.640;2023-03-01T08:34:15;-0.80;99.90
51950;DHT22;37974;53.218;6.640;2023-03-01T08:37:00;-0.40;99.90
51950;DHT22;37974;53.218;6.640;2023-03-01T08:39:44;0.60;99.90
51950;DHT22;37974;53.218;6.640;2023-03-01T08:42:10;-0.20;99.90
51950;DHT22;37974;53.218;6.640;2023-03-01T08:44:36;0.60;99.90
51950;DHT22;37974;53.218;6.640;2023-03-01T08:47:01;0.30;99.90
51950;DHT22;37974;53.218;6.640;2023-03-01T08:49:28;0.60;99.90
51950;DHT22;37974;53.218;6.640;2023-03-01T08:51:53;-0.20;99.90
51950;DHT22;37974;53.218;6.640;2023-03-01T08:54:21;0.90;99.90
51950;DHT22;37974;53.218;6.640;2023-03-01T08:56:48;1.00;99.90
51950;DHT22;37974;53.218;6.640;2023-03-01T08:59:15;0.20;99.90
51950;DHT22;37974;53.218;6.640;2023-03-01T09:01:41;0.30;99.90
51950;DHT22;37974;53.218;6.640;2023-03-01T09:04:11;0.70;99.90
51950;DHT22;37974;53.218;6.640;2023-03-01T09:06:37;0.90;99.90
51950;DHT22;37974;53.218;6.640;2023-03-01T09:09:04;0.90;99.90
51950;DHT22;37974;53.218;6.640;2023-03-01T09:11:30;1.30;99.90
51950;DHT22;37974;53.218;6.640;2023-03-01T09:13:56;0.90;99.90
51950;DHT22;37974;53.218;6.640;2023-03-01T09:16:23;1.70;99.90
51950;DHT22;37974;53.218;6.640;2023-03-01T09:18:51;1.50;99.90
51950;DHT22;37974;53.218;6.640;2023-03-01T09:21:18;1.50;99.90
51950;DHT22;37974;53.218;6.640;2023-03-01T09:23:47;1.70;99.90
51950;DHT22;37974;53.218;6.640;2023-03-01T09:26:16;2.30;99.90
51950;DHT22;37974;53.218;6.640;2023-03-01T09:28:43;1.60;99.90
51950;DHT22;37974;53.218;6.640;2023-03-01T09:31:10;2.60;99.90
51950;DHT22;37974;53.218;6.640;2023-03-01T09:33:41;3.10;99.90
51950;DHT22;37974;53.218;6.640;2023-03-01T09:36:12;2.50;99.90
51950;DHT22;37974;53.218;6.640;2023-03-01T09:38:38;2.00;99.90
51950;DHT22;37974;53.218;6.640;2023-03-01T09:41:36;2.10;99.90
51950;DHT22;37974;53.218;6.640;2023-03-01T09:44:12;2.20;99.90
51950;DHT22;37974;53.218;6.640;2023-03-01T09:46:43;2.70;99.90
51950;DHT22;37974;53.218;6.640;2023-03-01T09:49:17;3.40;99.90
51950;DHT22;37974;53.218;6.640;2023-03-01T09:51:57;2.40;99.90
51950;DHT22;37974;53.218;6.640;2023-03-01T09:54:27;2.60;99.90
51950;DHT22;37974;53.218;6.640;2023-03-01T09:57:04;2.70;99.90
51950;DHT22;37974;53.218;6.640;2023-03-01T09:59:55;2.80;99.90
51950;DHT22;37974;53.218;6.640;2023-03-01T10:04:57;3.00;99.90
51950;DHT22;37974;53.218;6.640;2023-03-01T10:10:27;3.10;99.90
51950;DHT22;37974;53.218;6.640;2023-03-01T10:12:53;3.20;99.90
51950;DHT22;37974;53.218;6.640;2023-03-01T10:15:34;3.30;99.90
51950;DHT22;37974;53.218;6.640;2023-03-01T10:18:18;3.40;99.90
51950;DHT22;37974;53.218;6.640;2023-03-01T10:20:51;4.10;99.90
51950;DHT22;37974;53.218;6.640;2023-03-01T10:23:18;3.50;99.90
51950;DHT22;37974;53.218;6.640;2023-03-01T10:26:08;3.60;99.90
51950;DHT22;37974;53.218;6.640;2023-03-01T10:34:10;3.80;99.90
51950;DHT22;37974;53.218;6.640;2023-03-01T10:36:38;3.90;99.90
51950;DHT22;37974;53.218;6.640;2023-03-01T10:39:13;3.90;99.90
51950;DHT22;37974;53.218;6.640;2023-03-01T10:42:00;4.10;99.90
51950;DHT22;37974;53.218;6.640;2023-03-01T10:44:40;3.30;99.90
51950;DHT22;37974;53.218;6.640;2023-03-01T10:47:13;4.20;99.90
51950;DHT22;37974;53.218;6.640;2023-03-01T10:49:52;4.30;99.90
51950;DHT22;37974;53.218;6.640;2023-03-01T10:52:21;4.40;99.90
51950;DHT22;37974;53.218;6.640;2023-03-01T10:54:54;4.40;99.90
51950;DHT22;37974;53.218;6.640;2023-03-01T10:57:35;4.40;99.90
51950;DHT22;37974;53.218;6.640;2023-03-01T11:02:38;4.90;99.90
51950;DHT22;37974;53.218;6.640;2023-03-01T11:07:50;4.70;99.90
51950;DHT22;37974;53.218;6.640;2023-03-01T11:10:19;4.70;99.90
51950;DHT22;37974;53.218;6.640;2023-03-01T11:12:45;4.80;99.90
51950;DHT22;37974;53.218;6.640;2023-03-01T11:15:21;5.40;99.90
51950;DHT22;37974;53.218;6.640;2023-03-01T11:17:48;5.00;99.90
51950;DHT22;37974;53.218;6.640;2023-03-01T11:20:19;5.00;99.90
51950;DHT22;37974;53.218;6.640;2023-03-01T11:22:53;5.00;99.90
51950;DHT22;37974;53.218;6.640;2023-03-01T11:25:24;5.00;99.90
51950;DHT22;37974;53.218;6.640;2023-03-01T11:27:52;5.20;99.90
51950;DHT22;37974;53.218;6.640;2023-03-01T11:30:26;5.20;99.90
51950;DHT22;37974;53.218;6.640;2023-03-01T11:33:37;5.30;99.90
51950;DHT22;37974;53.218;6.640;2023-03-01T11:36:08;5.30;99.90
51950;DHT22;37974;53.218;6.640;2023-03-01T11:38:39;5.40;99.90
51950;DHT22;37974;53.218;6.640;2023-03-01T11:48:55;5.50;99.90
51950;DHT22;37974;53.218;6.640;2023-03-01T11:51:43;5.60;99.90
51950;DHT22;37974;53.218;6.640;2023-03-01T11:54:22;5.70;99.90
51950;DHT22;37974;53.218;6.640;2023-03-01T11:56:55;5.70;99.90
51950;DHT22;37974;53.218;6.640;2023-03-01T12:07:50;6.00;99.90
51950;DHT22;37974;53.218;6.640;2023-03-01T12:10:23;6.00;99.90
51950;DHT22;37974;53.218;6.640;2023-03-01T12:13:03;6.00;99.90
51950;DHT22;37974;53.218;6.640;2023-03-01T12:15:40;6.00;99.90
51950;DHT22;37974;53.218;6.640;2023-03-01T12:18:24;6.00;99.90
51950;DHT22;37974;53.218;6.640;2023-03-01T12:21:04;6.00;99.90
51950;DHT22;37974;53.218;6.640;2023-03-01T12:24:10;6.00;99.90
51950;DHT22;37974;53.218;6.640;2023-03-01T12:26:51;6.10;99.90
51950;DHT22;37974;53.218;6.640;2023-03-01T12:32:12;6.20;99.90
51950;DHT22;37974;53.218;6.640;2023-03-01T12:35:23;6.10;99.90
51950;DHT22;37974;53.218;6.640;2023-03-01T12:45:59;6.40;99.90
51950;DHT22;37974;53.218;6.640;2023-03-01T12:48:59;6.40;99.90
51950;DHT22;37974;53.218;6.640;2023-03-01T12:51:30;6.40;99.90
51950;DHT22;37974;53.218;6.640;2023-03-01T12:53:59;6.50;99.90
51950;DHT22;37974;53.218;6.640;2023-03-01T12:56:30;6.60;99.90
51950;DHT22;37974;53.218;6.640;2023-03-01T12:58:59;6.60;99.90
51950;DHT22;37974;53.218;6.640;2023-03-01T13:01:47;6.70;99.90
51950;DHT22;37974;53.218;6.640;2023-03-01T13:04:30;6.70;99.90
51950;DHT22;37974;53.218;6.640;2023-03-01T13:07:30;6.70;99.90
51950;DHT22;37974;53.218;6.640;2023-03-01T13:13:20;6.70;99.90
51950;DHT22;37974;53.218;6.640;2023-03-01T13:15:47;6.80;99.90
51950;DHT22;37974;53.218;6.640;2023-03-01T13:18:35;6.80;99.90
51950;DHT22;37974;53.218;6.640;2023-03-01T13:21:02;6.80;99.90
51950;DHT22;37974;53.218;6.640;2023-03-01T13:23:33;6.90;99.90
51950;DHT22;37974;53.218;6.640;2023-03-01T13:26:11;6.90;99.90
51950;DHT22;37974;53.218;6.640;2023-03-01T13:28:49;6.90;99.90
51950;DHT22;37974;53.218;6.640;2023-03-01T13:33:56;6.90;99.90
51950;DHT22;37974;53.218;6.640;2023-03-01T13:36:50;6.90;99.90
51950;DHT22;37974;53.218;6.640;2023-03-01T13:39:29;6.90;99.90
51950;DHT22;37974;53.218;6.640;2023-03-01T13:41:58;6.90;99.90
51950;DHT22;37974;53.218;6.640;2023-03-01T13:44:32;6.90;99.90
51950;DHT22;37974;53.218;6.640;2023-03-01T13:49:53;6.90;99.90
51950;DHT22;37974;53.218;6.640;2023-03-01T13:52:45;6.90;99.90
51950;DHT22;37974;53.218;6.640;2023-03-01T13:55:17;6.90;99.90
51950;DHT22;37974;53.218;6.640;2023-03-01T13:57:54;6.90;99.90
51950;DHT22;37974;53.218;6.640;2023-03-01T14:03:10;6.90;99.90
51950;DHT22;37974;53.218;6.640;2023-03-01T14:05:38;6.80;99.90
51950;DHT22;37974;53.218;6.640;2023-03-01T14:08:13;6.80;99.90
51950;DHT22;37974;53.218;6.640;2023-03-01T14:19:27;6.80;99.90
51950;DHT22;37974;53.218;6.640;2023-03-01T14:22:11;6.80;99.90
51950;DHT22;37974;53.218;6.640;2023-03-01T14:24:47;6.80;99.90
51950;DHT22;37974;53.218;6.640;2023-03-01T14:27:17;6.80;99.90
51950;DHT22;37974;53.218;6.640;2023-03-01T14:29:44;6.80;99.90
51950;DHT22;37974;53.218;6.640;2023-03-01T14:32:35;6.80;99.90
51950;DHT22;37974;53.218;6.640;2023-03-01T14:35:01;6.80;99.90
51950;DHT22;37974;53.218;6.640;2023-03-01T14:37:32;6.80;99.90
51950;DHT22;37974;53.218;6.640;2023-03-01T14:40:01;6.80;99.90
51950;DHT22;37974;53.218;6.640;2023-03-01T14:42:31;6.80;99.90
51950;DHT22;37974;53.218;6.640;2023-03-01T14:45:11;6.80;99.90
51950;DHT22;37974;53.218;6.640;2023-03-01T14:47:38;6.90;99.90
51950;DHT22;37974;53.218;6.640;2023-03-01T14:50:10;7.30;99.90
51950;DHT22;37974;53.218;6.640;2023-03-01T14:52:42;6.90;99.90
51950;DHT22;37974;53.218;6.640;2023-03-01T14:55:31;6.90;99.90
51950;DHT22;37974;53.218;6.640;2023-03-01T14:57:58;6.90;99.90
51950;DHT22;37974;53.218;6.640;2023-03-01T15:00:27;6.90;99.90
51950;DHT22;37974;53.218;6.640;2023-03-01T15:02:55;6.90;99.90
51950;DHT22;37974;53.218;6.640;2023-03-01T15:05:29;6.90;99.90
51950;DHT22;37974;53.218;6.640;2023-03-01T15:07:56;6.90;99.90
51950;DHT22;37974;53.218;6.640;2023-03-01T15:10:26;6.90;99.90
51950;DHT22;37974;53.218;6.640;2023-03-01T15:12:53;6.90;99.90
51950;DHT22;37974;53.218;6.640;2023-03-01T15:17:52;6.90;99.90
51950;DHT22;37974;53.218;6.640;2023-03-01T15:20:23;6.80;99.90
51950;DHT22;37974;53.218;6.640;2023-03-01T15:23:17;6.90;99.90
51950;DHT22;37974;53.218;6.640;2023-03-01T15:25:44;6.90;99.90
51950;DHT22;37974;53.218;6.640;2023-03-01T15:28:19;6.90;99.90
51950;DHT22;37974;53.218;6.640;2023-03-01T15:30:46;6.20;99.90
51950;DHT22;37974;53.218;6.640;2023-03-01T15:33:28;6.80;99.90
51950;DHT22;37974;53.218;6.640;2023-03-01T15:35:56;6.90;99.90
51950;DHT22;37974;53.218;6.640;2023-03-01T15:41:00;6.90;99.90
51950;DHT22;37974;53.218;6.640;2023-03-01T15:43:42;6.80;99.90
51950;DHT22;37974;53.218;6.640;2023-03-01T15:46:18;6.90;99.90
51950;DHT22;37974;53.218;6.640;2023-03-01T15:48:47;6.90;99.90
51950;DHT22;37974;53.218;6.640;2023-03-01T15:51:30;6.90;99.90
51950;DHT22;37974;53.218;6.640;2023-03-01T15:53:59;6.80;99.90
51950;DHT22;37974;53.218;6.640;2023-03-01T15:56:25;6.70;99.90
51950;DHT22;37974;53.218;6.640;2023-03-01T15:58:51;6.70;99.90
51950;DHT22;37974;53.218;6.640;2023-03-01T16:01:17;6.70;99.90
51950;DHT22;37974;53.218;6.640;2023-03-01T16:03:43;6.70;99.90
51950;DHT22;37974;53.218;6.640;2023-03-01T16:06:10;6.70;99.90
51950;DHT22;37974;53.218;6.640;2023-03-01T16:08:37;6.60;99.90
51950;DHT22;37974;53.218;6.640;2023-03-01T16:11:05;6.50;99.90
51950;DHT22;37974;53.218;6.640;2023-03-01T16:13:34;6.50;99.90
51950;DHT22;37974;53.218;6.640;2023-03-01T16:16:00;6.50;99.90
51950;DHT22;37974;53.218;6.640;2023-03-01T16:18:25;6.40;99.90
51950;DHT22;37974;53.218;6.640;2023-03-01T16:20:51;6.40;99.90
51950;DHT22;37974;53.218;6.640;2023-03-01T16:23:19;6.30;99.90
51950;DHT22;37974;53.218;6.640;2023-03-01T16:25:46;6.30;99.90
51950;DHT22;37974;53.218;6.640;2023-03-01T16:28:12;6.20;99.90
51950;DHT22;37974;53.218;6.640;2023-03-01T16:30:40;6.20;99.90
51950;DHT22;37974;53.218;6.640;2023-03-01T16:33:06;6.10;99.90
51950;DHT22;37974;53.218;6.640;2023-03-01T16:35:39;6.00;99.90
51950;DHT22;37974;53.218;6.640;2023-03-01T16:38:15;5.90;99.90
51950;DHT22;37974;53.218;6.640;2023-03-01T16:40:53;6.20;99.90
51950;DHT22;37974;53.218;6.640;2023-03-01T16:43:24;5.80;99.90
51950;DHT22;37974;53.218;6.640;2023-03-01T16:45:58;5.70;99.90
51950;DHT22;37974;53.218;6.640;2023-03-01T16:48:25;5.80;99.90
51950;DHT22;37974;53.218;6.640;2023-03-01T16:50:56;5.60;99.90
51950;DHT22;37974;53.218;6.640;2023-03-01T16:53:25;5.60;99.90
51950;DHT22;37974;53.218;6.640;2023-03-01T16:55:55;5.50;99.90
51950;DHT22;37974;53.218;6.640;2023-03-01T16:58:21;5.40;99.90
51950;DHT22;37974;53.218;6.640;2023-03-01T17:00:51;5.40;99.90
51950;DHT22;37974;53.218;6.640;2023-03-01T17:03:20;5.30;99.90
51950;DHT22;37974;53.218;6.640;2023-03-01T17:05:46;5.20;99.90
51950;DHT22;37974;53.218;6.640;2023-03-01T17:08:15;5.20;99.90
51950;DHT22;37974;53.218;6.640;2023-03-01T17:10:44;5.10;99.90
51950;DHT22;37974;53.218;6.640;2023-03-01T17:13:10;5.10;99.90